Time;durP1;ratioP1;P1;durP2;ratioP2;P2;SDS_P1;SDS_P2;PMS_P1;PMS_P2;Temp;Humidity;BMP_temperature;BMP_pressure;BME280_temperature;BME280_humidity;BME280_pressure;Samples;Min_cycle;Max_cycle;Signal;HPM_P1;HPM_P2
2022/04/04 00:01:21;;;;;;;6.40;5.47;;;;;;;;;;5032579;28;20363;-73
2022/04/04 00:03:46;;;;;;;7.07;5.88;;;;;;;;;;5032140;28;20434;-73
2022/04/04 00:06:12;;;;;;;9.10;5.93;;;;;;;;;;5033337;28;20264;-73
2022/04/04 00:08:37;;;;;;;7.32;5.78;;;;;;;;;;5031071;28;20057;-73
2022/04/04 00:11:02;;;;;;;8.27;6.35;;;;;;;;;;5012204;28;20109;-73
2022/04/04 00:13:28;;;;;;;6.88;5.80;;;;;;;;;;5012065;28;20049;-73
2022/04/04 00:15:56;;;;;;;7.63;5.78;;;;;;;;;;5012191;28;20030;-73
2022/04/04 00:18:22;;;;;;;6.53;5.22;;;;;;;;;;5011818;28;20029;-73
2022/04/04 00:20:49;;;;;;;8.55;5.80;;;;;;;;;;5014620;28;20025;-73
2022/04/04 00:23:15;;;;;;;8.25;5.85;;;;;;;;;;5051486;28;20017;-73
2022/04/04 00:25:42;;;;;;;5.85;5.15;;;;;;;;;;5045959;28;20037;-74
2022/04/04 00:28:07;;;;;;;7.63;5.68;;;;;;;;;;5029605;28;20481;-73
2022/04/04 00:30:33;;;;;;;6.32;5.72;;;;;;;;;;5041326;28;20106;-73
2022/04/04 00:32:58;;;;;;;6.75;6.05;;;;;;;;;;5051500;28;20425;-73
2022/04/04 00:35:24;;;;;;;6.78;6.07;;;;;;;;;;5051432;28;20031;-73
2022/04/04 00:37:49;;;;;;;5.93;5.32;;;;;;;;;;5051780;28;20025;-73
2022/04/04 00:40:14;;;;;;;8.77;6.05;;;;;;;;;;5051036;28;20162;-73
2022/04/04 00:42:40;;;;;;;6.35;5.72;;;;;;;;;;5034826;28;20491;-73
2022/04/04 00:45:06;;;;;;;6.68;6.00;;;;;;;;;;5011849;28;20022;-73
2022/04/04 00:47:32;;;;;;;8.38;5.97;;;;;;;;;;5011507;28;20187;-73
2022/04/04 00:49:57;;;;;;;7.20;5.72;;;;;;;;;;5032552;28;20080;-73
2022/04/04 00:52:23;;;;;;;7.35;5.90;;;;;;;;;;5051143;28;20035;-72
2022/04/04 00:54:48;;;;;;;8.63;6.00;;;;;;;;;;5051394;28;20028;-73
2022/04/04 00:57:13;;;;;;;8.07;6.25;;;;;;;;;;5051223;28;20091;-73
2022/04/04 00:59:39;;;;;;;8.02;6.03;;;;;;;;;;5034717;28;20033;-73
2022/04/04 01:02:05;;;;;;;7.30;6.57;;;;;;;;;;5030717;28;20457;-73
2022/04/04 01:04:30;;;;;;;7.90;6.32;;;;;;;;;;5030965;28;20411;-73
2022/04/04 01:06:59;;;;;;;7.78;6.70;;;;;;;;;;5031056;28;20032;-73
2022/04/04 01:09:24;;;;;;;7.00;6.25;;;;;;;;;;5030621;28;20030;-73
2022/04/04 01:12:02;;;;;;;7.53;6.45;;;;;;;;;;5031165;28;20029;-73
2022/04/04 01:14:28;;;;;;;8.82;7.00;;;;;;;;;;5045806;28;20057;-73
2022/04/04 01:16:53;;;;;;;7.55;6.45;;;;;;;;;;5030397;28;20065;-73
2022/04/04 01:19:19;;;;;;;8.15;6.72;;;;;;;;;;5050453;28;20100;-73
2022/04/04 01:21:44;;;;;;;8.40;6.68;;;;;;;;;;5034706;28;20036;-73
2022/04/04 01:24:18;;;;;;;7.65;6.50;;;;;;;;;;5031541;28;20104;-73
2022/04/04 01:26:50;;;;;;;9.32;6.57;;;;;;;;;;5030688;28;20483;-73
2022/04/04 01:29:16;;;;;;;10.93;7.13;;;;;;;;;;5030584;28;20071;-73
2022/04/04 01:31:41;;;;;;;7.50;6.65;;;;;;;;;;5029629;28;20033;-73
2022/04/04 01:34:07;;;;;;;8.70;6.88;;;;;;;;;;5027135;28;20033;-72
2022/04/04 01:36:33;;;;;;;10.60;7.55;;;;;;;;;;5030575;28;20029;-73
2022/04/04 01:38:58;;;;;;;10.00;7.88;;;;;;;;;;5037049;28;20032;-73
2022/04/04 01:41:24;;;;;;;8.73;7.30;;;;;;;;;;5050378;28;20024;-73
2022/04/04 01:43:50;;;;;;;8.75;7.07;;;;;;;;;;5011223;28;20026;-73
2022/04/04 01:46:24;;;;;;;8.40;6.78;;;;;;;;;;5035937;28;20029;-73
2022/04/04 01:48:50;;;;;;;9.40;6.95;;;;;;;;;;5050283;28;20021;-73
2022/04/04 01:51:16;;;;;;;9.02;7.18;;;;;;;;;;5052380;28;20390;-73
2022/04/04 01:53:42;;;;;;;8.15;6.88;;;;;;;;;;5049991;28;20021;-73
2022/04/04 01:56:07;;;;;;;8.75;6.97;;;;;;;;;;5045260;28;20498;-73
2022/04/04 01:58:33;;;;;;;9.85;6.95;;;;;;;;;;5031794;28;20029;-73
2022/04/04 02:01:01;;;;;;;10.15;7.53;;;;;;;;;;5030474;28;20021;-73
2022/04/04 02:03:29;;;;;;;8.48;7.15;;;;;;;;;;5030695;28;20156;-73
2022/04/04 02:05:55;;;;;;;8.55;6.93;;;;;;;;;;5030312;28;20026;-73
2022/04/04 02:08:20;;;;;;;8.13;6.97;;;;;;;;;;5030061;28;20483;-73
2022/04/04 02:10:46;;;;;;;9.43;7.25;;;;;;;;;;5030138;28;20029;-74
2022/04/04 02:13:12;;;;;;;9.65;6.80;;;;;;;;;;5028866;28;20021;-73
2022/04/04 02:15:38;;;;;;;8.52;6.93;;;;;;;;;;5066398;22;20049;-76
2022/04/04 02:18:03;;;;;;;7.70;6.90;;;;;;;;;;5049820;28;20097;-76
2022/04/04 02:20:28;;;;;;;9.02;6.85;;;;;;;;;;5050047;28;20028;-76
2022/04/04 02:22:54;;;;;;;9.20;7.43;;;;;;;;;;5049589;28;20409;-76
2022/04/04 02:25:19;;;;;;;9.93;7.10;;;;;;;;;;5049593;28;20033;-76
2022/04/04 02:27:44;;;;;;;10.40;7.22;;;;;;;;;;5049730;28;20044;-77
2022/04/04 02:30:10;;;;;;;10.27;7.45;;;;;;;;;;5049217;28;20021;-77
2022/04/04 02:32:37;;;;;;;9.45;7.20;;;;;;;;;;5049343;28;20066;-76
2022/04/04 02:35:03;;;;;;;10.15;7.68;;;;;;;;;;5049632;28;20072;-76
2022/04/04 02:37:28;;;;;;;8.68;6.97;;;;;;;;;;5049774;28;20028;-77
2022/04/04 02:39:54;;;;;;;10.23;7.72;;;;;;;;;;5049737;28;20029;-76
2022/04/04 02:42:19;;;;;;;10.02;7.40;;;;;;;;;;5049591;28;20040;-76
2022/04/04 02:44:45;;;;;;;8.70;6.80;;;;;;;;;;5049848;28;20024;-77
2022/04/04 02:47:10;;;;;;;10.48;7.35;;;;;;;;;;5049211;28;20111;-76
2022/04/04 02:49:36;;;;;;;10.50;7.07;;;;;;;;;;5049419;28;20117;-76
2022/04/04 02:52:01;;;;;;;9.38;7.28;;;;;;;;;;5049698;28;20116;-76
2022/04/04 02:54:26;;;;;;;8.43;7.53;;;;;;;;;;5049007;28;20397;-76
2022/04/04 02:56:52;;;;;;;9.40;7.50;;;;;;;;;;5049689;28;20025;-76
2022/04/04 02:59:18;;;;;;;10.30;7.53;;;;;;;;;;5048041;28;20393;-76
2022/04/04 03:01:48;;;;;;;9.57;7.43;;;;;;;;;;5049073;28;20029;-76
2022/04/04 03:04:18;;;;;;;8.50;7.45;;;;;;;;;;5049924;28;20371;-76
2022/04/04 03:06:43;;;;;;;9.82;7.22;;;;;;;;;;5053093;28;20256;-76
2022/04/04 03:09:09;;;;;;;9.98;7.00;;;;;;;;;;5053092;28;20060;-76
2022/04/04 03:11:34;;;;;;;10.98;7.80;;;;;;;;;;5053110;28;20017;-76
2022/04/04 03:14:00;;;;;;;10.15;7.93;;;;;;;;;;5052915;28;20099;-76
2022/04/04 03:16:25;;;;;;;10.85;8.05;;;;;;;;;;5053114;28;20120;-76
2022/04/04 03:18:54;;;;;;;12.82;8.00;;;;;;;;;;5052475;28;20394;-76
2022/04/04 03:21:19;;;;;;;9.90;7.90;;;;;;;;;;5052926;28;20027;-76
2022/04/04 03:23:45;;;;;;;9.88;7.95;;;;;;;;;;5052979;28;20029;-76
2022/04/04 03:26:10;;;;;;;9.70;7.68;;;;;;;;;;5052561;28;20045;-76
2022/04/04 03:28:36;;;;;;;11.32;7.78;;;;;;;;;;5052669;28;20021;-76
2022/04/04 03:31:04;;;;;;;10.88;8.02;;;;;;;;;;5052855;28;20052;-77
2022/04/04 03:33:30;;;;;;;9.15;7.47;;;;;;;;;;5052961;28;20017;-76
2022/04/04 03:35:55;;;;;;;9.80;7.65;;;;;;;;;;5052234;28;20531;-76
2022/04/04 03:38:21;;;;;;;10.40;7.78;;;;;;;;;;5052786;28;20028;-76
2022/04/04 03:40:46;;;;;;;11.18;8.23;;;;;;;;;;5052822;28;20109;-76
2022/04/04 03:43:12;;;;;;;13.05;8.68;;;;;;;;;;5053012;28;20021;-77
2022/04/04 03:45:37;;;;;;;11.82;8.13;;;;;;;;;;5053868;28;20028;-77
2022/04/04 03:48:02;;;;;;;9.05;7.88;;;;;;;;;;5053786;28;20033;-77
2022/04/04 03:50:28;;;;;;;11.63;8.30;;;;;;;;;;5054260;28;20466;-77
2022/04/04 03:52:56;;;;;;;9.90;7.97;;;;;;;;;;5054024;28;20037;-76
2022/04/04 03:55:26;;;;;;;10.73;8.10;;;;;;;;;;5052947;28;20032;-76
2022/04/04 03:57:52;;;;;;;13.93;8.07;;;;;;;;;;5052490;28;20034;-77
2022/04/04 04:00:19;;;;;;;11.40;8.90;;;;;;;;;;5051061;28;20025;-76
2022/04/04 04:02:44;;;;;;;10.93;8.20;;;;;;;;;;5052553;28;20063;-76
2022/04/04 04:05:10;;;;;;;13.82;8.60;;;;;;;;;;5052177;28;20025;-76
2022/04/04 04:07:36;;;;;;;11.90;8.73;;;;;;;;;;5052433;28;20035;-77
2022/04/04 04:10:01;;;;;;;12.25;8.07;;;;;;;;;;5052230;28;20112;-76
2022/04/04 04:12:27;;;;;;;11.57;8.98;;;;;;;;;;5052572;28;20613;-76
2022/04/04 04:14:53;;;;;;;12.35;8.45;;;;;;;;;;5051751;28;20444;-76
2022/04/04 04:17:21;;;;;;;10.40;7.90;;;;;;;;;;5051687;28;20040;-77
2022/04/04 04:22:31;;;;;;;12.57;8.95;;;;;;;;;;5051877;28;20040;-77
2022/04/04 04:24:57;;;;;;;13.63;8.55;;;;;;;;;;5051819;28;20040;-78
2022/04/04 04:27:23;;;;;;;12.00;8.35;;;;;;;;;;5052116;28;20086;-77
2022/04/04 04:29:48;;;;;;;13.90;8.90;;;;;;;;;;5052327;28;20517;-78
2022/04/04 04:32:14;;;;;;;12.55;9.10;;;;;;;;;;5051929;28;20017;-77
2022/04/04 04:34:39;;;;;;;12.05;8.38;;;;;;;;;;5051906;28;20057;-77
2022/04/04 04:37:05;;;;;;;10.30;8.05;;;;;;;;;;5051726;28;20394;-77
2022/04/04 04:39:31;;;;;;;13.93;8.52;;;;;;;;;;5051190;28;20108;-77
2022/04/04 04:41:56;;;;;;;12.98;9.65;;;;;;;;;;5051423;28;20036;-77
2022/04/04 04:44:22;;;;;;;13.23;9.40;;;;;;;;;;5050132;28;20056;-77
2022/04/04 04:46:48;;;;;;;12.50;9.18;;;;;;;;;;5051268;28;20453;-78
2022/04/04 04:49:14;;;;;;;12.82;8.98;;;;;;;;;;5050951;28;20600;-77
2022/04/04 04:51:41;;;;;;;11.27;8.65;;;;;;;;;;5050798;28;20091;-77
2022/04/04 04:54:06;;;;;;;16.20;9.32;;;;;;;;;;5051016;28;20032;-77
2022/04/04 04:56:31;;;;;;;12.38;8.95;;;;;;;;;;5051461;28;20020;-77
2022/04/04 04:58:57;;;;;;;12.75;9.07;;;;;;;;;;5051510;28;20029;-77
2022/04/04 05:01:22;;;;;;;12.77;9.23;;;;;;;;;;5051364;28;20107;-78
2022/04/04 05:03:50;;;;;;;14.05;8.88;;;;;;;;;;5051836;28;20421;-78
2022/04/04 05:06:15;;;;;;;10.75;8.55;;;;;;;;;;5051774;28;20192;-78
2022/04/04 05:08:40;;;;;;;11.82;8.85;;;;;;;;;;5051322;28;20078;-78
2022/04/04 05:11:06;;;;;;;11.63;9.30;;;;;;;;;;5051114;28;20025;-78
2022/04/04 05:13:31;;;;;;;13.63;9.15;;;;;;;;;;5050640;28;20444;-78
2022/04/04 05:15:57;;;;;;;12.32;9.02;;;;;;;;;;5050792;28;20032;-78
2022/04/04 05:18:22;;;;;;;19.70;15.57;;;;;;;;;;5050162;28;20021;-77
2022/04/04 05:20:47;;;;;;;14.88;12.30;;;;;;;;;;5049456;28;20457;-77
2022/04/04 05:23:13;;;;;;;11.60;10.07;;;;;;;;;;5050752;28;20099;-77
2022/04/04 05:25:40;;;;;;;12.60;9.15;;;;;;;;;;5050793;28;20052;-78
2022/04/04 05:28:07;;;;;;;10.82;8.45;;;;;;;;;;5039876;28;20457;-77
2022/04/04 05:30:33;;;;;;;11.80;8.38;;;;;;;;;;5050497;28;20406;-78
2022/04/04 05:32:59;;;;;;;11.95;8.45;;;;;;;;;;5050382;28;20029;-77
2022/04/04 05:35:24;;;;;;;11.70;8.80;;;;;;;;;;5045169;28;20052;-77
2022/04/04 05:37:54;;;;;;;12.55;8.43;;;;;;;;;;5040830;28;20383;-77
2022/04/04 05:40:20;;;;;;;12.95;9.27;;;;;;;;;;5051114;28;20367;-77
2022/04/04 05:42:46;;;;;;;11.35;9.77;;;;;;;;;;5051258;28;20060;-78
2022/04/04 05:45:12;;;;;;;16.13;11.38;;;;;;;;;;5050854;28;20025;-78
2022/04/04 05:47:37;;;;;;;14.30;10.95;;;;;;;;;;5042569;28;20048;-78
2022/04/04 05:50:03;;;;;;;12.45;9.02;;;;;;;;;;5038091;28;20032;-78
2022/04/04 05:52:28;;;;;;;12.70;9.30;;;;;;;;;;5030029;28;20030;-77
2022/04/04 05:54:54;;;;;;;12.95;9.25;;;;;;;;;;5038180;28;20090;-77
2022/04/04 05:57:24;;;;;;;14.60;8.93;;;;;;;;;;5048605;28;20111;-77
2022/04/04 05:59:50;;;;;;;12.18;8.95;;;;;;;;;;5048824;28;20060;-77
2022/04/04 06:02:16;;;;;;;12.50;9.30;;;;;;;;;;5048847;28;20032;-77
2022/04/04 06:04:41;;;;;;;13.23;8.70;;;;;;;;;;5058293;28;20033;-78
2022/04/04 06:07:06;;;;;;;12.13;8.43;;;;;;;;;;5056425;28;20093;-79
2022/04/04 06:09:32;;;;;;;13.10;8.90;;;;;;;;;;5049055;28;20096;-78
2022/04/04 06:11:57;;;;;;;12.15;8.60;;;;;;;;;;5040463;28;20022;-76
2022/04/04 06:14:23;;;;;;;12.75;9.20;;;;;;;;;;5045731;28;20032;-77
2022/04/04 06:16:48;;;;;;;15.30;9.18;;;;;;;;;;5041001;28;20021;-78
2022/04/04 06:19:13;;;;;;;12.02;8.93;;;;;;;;;;5045816;28;20033;-77
2022/04/04 06:21:39;;;;;;;11.13;8.57;;;;;;;;;;5045664;28;20421;-79
2022/04/04 06:24:05;;;;;;;11.68;8.55;;;;;;;;;;5046677;28;20021;-75
2022/04/04 06:26:31;;;;;;;10.85;8.38;;;;;;;;;;5046866;28;20029;-77
2022/04/04 06:28:56;;;;;;;12.05;8.15;;;;;;;;;;5045545;28;20082;-77
2022/04/04 06:31:22;;;;;;;11.75;8.43;;;;;;;;;;5047490;28;20025;-76
2022/04/04 06:33:48;;;;;;;9.32;8.15;;;;;;;;;;5045880;28;20494;-76
2022/04/04 06:36:13;;;;;;;12.30;8.52;;;;;;;;;;5044466;28;20032;-78
2022/04/04 06:38:39;;;;;;;11.50;8.27;;;;;;;;;;5031316;28;20033;-77
2022/04/04 06:41:04;;;;;;;13.82;8.63;;;;;;;;;;5030237;28;20036;-79
2022/04/04 06:43:30;;;;;;;10.13;8.15;;;;;;;;;;5031477;28;20115;-76
2022/04/04 06:45:55;;;;;;;12.02;8.25;;;;;;;;;;5030101;28;20065;-78
2022/04/04 06:48:22;;;;;;;9.30;8.00;;;;;;;;;;5028408;28;20033;-77
2022/04/04 06:50:47;;;;;;;11.23;7.88;;;;;;;;;;5049562;28;20020;-76
2022/04/04 06:53:13;;;;;;;10.02;7.95;;;;;;;;;;5050236;28;20035;-76
2022/04/04 06:55:39;;;;;;;11.77;7.75;;;;;;;;;;5049918;28;20032;-76
2022/04/04 06:58:04;;;;;;;14.55;8.40;;;;;;;;;;5049754;28;20060;-76
2022/04/04 07:00:30;;;;;;;12.90;8.68;;;;;;;;;;5049072;28;20470;-76
2022/04/04 07:02:57;;;;;;;10.23;8.10;;;;;;;;;;5050136;28;20083;-78
2022/04/04 07:05:23;;;;;;;11.27;8.40;;;;;;;;;;5048768;28;20332;-76
2022/04/04 07:07:49;;;;;;;9.65;8.30;;;;;;;;;;5049995;28;20040;-77
2022/04/04 07:10:15;;;;;;;10.20;7.78;;;;;;;;;;5050166;28;20040;-77
2022/04/04 07:12:43;;;;;;;11.40;7.90;;;;;;;;;;5049677;28;20040;-75
2022/04/04 07:15:12;;;;;;;11.15;7.93;;;;;;;;;;5050856;28;20025;-76
2022/04/04 07:17:39;;;;;;;11.48;9.05;;;;;;;;;;5052065;28;20048;-75
2022/04/04 07:20:05;;;;;;;9.75;8.05;;;;;;;;;;5050526;28;20075;-75
2022/04/04 07:22:38;;;;;;;12.02;7.70;;;;;;;;;;5049772;28;20457;-76
2022/04/04 07:25:06;;;;;;;12.85;8.35;;;;;;;;;;5047716;28;20063;-77
2022/04/04 07:27:32;;;;;;;11.23;7.38;;;;;;;;;;5049085;28;20028;-75
2022/04/04 07:29:57;;;;;;;9.10;7.30;;;;;;;;;;5048377;28;20100;-74
2022/04/04 07:32:22;;;;;;;9.38;6.60;;;;;;;;;;5047601;28;20025;-76
2022/04/04 07:34:48;;;;;;;6.45;5.32;;;;;;;;;;5048628;28;20028;-74
2022/04/04 07:37:14;;;;;;;7.53;5.80;;;;;;;;;;5047674;28;20024;-75
2022/04/04 07:39:40;;;;;;;7.85;5.43;;;;;;;;;;5049144;28;20158;-73
2022/04/04 07:42:06;;;;;;;7.35;5.03;;;;;;;;;;5048210;28;20120;-74
2022/04/04 07:44:31;;;;;;;8.30;5.32;;;;;;;;;;5048325;28;20052;-72
2022/04/04 07:46:56;;;;;;;7.82;5.28;;;;;;;;;;5047852;28;20032;-74
2022/04/04 07:49:22;;;;;;;6.55;5.07;;;;;;;;;;5047979;28;20033;-77
2022/04/04 07:51:47;;;;;;;5.70;4.93;;;;;;;;;;5045441;28;20029;-71
2022/04/04 07:54:13;;;;;;;5.85;4.82;;;;;;;;;;5046772;28;20559;-75
2022/04/04 07:56:39;;;;;;;5.63;4.95;;;;;;;;;;5045362;28;20029;-74
2022/04/04 07:59:04;;;;;;;7.07;5.18;;;;;;;;;;5045448;28;20031;-73
2022/04/04 08:01:29;;;;;;;7.95;4.68;;;;;;;;;;5045253;28;20103;-72
2022/04/04 08:03:54;;;;;;;6.55;5.30;;;;;;;;;;5044320;28;20065;-73
2022/04/04 08:06:20;;;;;;;6.35;5.63;;;;;;;;;;5047977;28;20372;-73
2022/04/04 08:08:45;;;;;;;7.85;4.82;;;;;;;;;;5046566;28;20088;-75
2022/04/04 08:11:11;;;;;;;8.57;6.78;;;;;;;;;;5046390;28;20028;-72
2022/04/04 08:13:42;;;;;;;7.03;5.00;;;;;;;;;;5047468;28;20090;-75
2022/04/04 08:16:08;;;;;;;9.38;6.03;;;;;;;;;;5058274;22;20048;-72
2022/04/04 08:18:34;;;;;;;7.00;5.70;;;;;;;;;;5044414;28;20029;-71
2022/04/04 08:21:00;;;;;;;6.82;5.60;;;;;;;;;;5045696;28;20052;-72
2022/04/04 08:23:29;;;;;;;6.18;5.50;;;;;;;;;;5043949;28;20029;-73
2022/04/04 08:25:56;;;;;;;6.80;6.07;;;;;;;;;;5044352;28;20033;-74
2022/04/04 08:28:21;;;;;;;9.77;5.57;;;;;;;;;;5045531;28;20105;-71
2022/04/04 08:30:47;;;;;;;6.85;6.15;;;;;;;;;;5038258;28;20057;-71
2022/04/04 08:33:12;;;;;;;7.18;6.47;;;;;;;;;;5042081;28;20063;-70
2022/04/04 08:35:38;;;;;;;8.48;5.90;;;;;;;;;;5047395;28;20305;-71
2022/04/04 08:38:03;;;;;;;7.18;6.10;;;;;;;;;;5045866;28;20028;-69
2022/04/04 08:40:29;;;;;;;9.23;6.47;;;;;;;;;;5048125;28;20032;-72
2022/04/04 08:42:54;;;;;;;6.95;6.25;;;;;;;;;;5046916;28;20125;-72
2022/04/04 08:45:20;;;;;;;7.40;6.57;;;;;;;;;;5046960;28;20025;-72
2022/04/04 08:47:46;;;;;;;7.50;6.00;;;;;;;;;;5047351;28;20127;-75
2022/04/04 08:50:12;;;;;;;7.35;6.63;;;;;;;;;;5046084;28;20025;-73
2022/04/04 08:52:38;;;;;;;7.70;5.72;;;;;;;;;;5047898;28;20048;-73
2022/04/04 08:55:04;;;;;;;7.75;5.93;;;;;;;;;;5046905;28;20851;-71
2022/04/04 08:57:30;;;;;;;7.70;6.75;;;;;;;;;;5046623;28;20025;-70
2022/04/04 08:59:55;;;;;;;9.60;6.35;;;;;;;;;;5047365;28;20036;-74
2022/04/04 09:02:21;;;;;;;8.45;6.68;;;;;;;;;;5044375;28;20040;-73
2022/04/04 09:04:52;;;;;;;7.18;6.30;;;;;;;;;;5046731;28;20020;-70
2022/04/04 09:07:19;;;;;;;6.65;5.78;;;;;;;;;;5047359;28;20028;-71
2022/04/04 09:09:49;;;;;;;8.07;5.53;;;;;;;;;;5043629;28;20032;-70
2022/04/04 09:12:23;;;;;;;7.88;6.35;;;;;;;;;;5044008;28;20100;-72
2022/04/04 09:14:51;;;;;;;10.55;6.10;;;;;;;;;;5041303;28;20122;-72
2022/04/04 09:17:19;;;;;;;5.82;4.78;;;;;;;;;;5044157;28;20027;-74
2022/04/04 09:19:44;;;;;;;8.32;6.43;;;;;;;;;;5042553;28;20040;-72
2022/04/04 09:22:15;;;;;;;7.65;6.70;;;;;;;;;;5042877;28;20029;-73
2022/04/04 09:24:47;;;;;;;10.57;6.45;;;;;;;;;;5042889;28;20091;-69
2022/04/04 09:27:18;;;;;;;12.38;6.57;;;;;;;;;;5043494;28;20025;-76
2022/04/04 09:29:43;;;;;;;8.00;6.60;;;;;;;;;;5043327;28;20021;-72
2022/04/04 09:32:12;;;;;;;8.32;6.20;;;;;;;;;;5041377;28;20375;-72
2022/04/04 09:35:02;;;;;;;8.73;5.95;;;;;;;;;;5043343;28;20029;-72
2022/04/04 09:37:29;;;;;;;6.85;5.78;;;;;;;;;;5031839;28;20025;-72
2022/04/04 09:40:09;;;;;;;7.13;6.00;;;;;;;;;;5042513;28;20580;-74
2022/04/04 09:42:35;;;;;;;8.27;5.60;;;;;;;;;;5042538;28;20241;-70
2022/04/04 09:45:09;;;;;;;9.07;5.90;;;;;;;;;;5043182;28;20059;-71
2022/04/04 09:48:04;;;;;;;6.47;5.72;;;;;;;;;;5043428;28;20055;-72
2022/04/04 09:50:46;;;;;;;4.97;4.45;;;;;;;;;;5042436;28;20158;-74
2022/04/04 09:53:14;;;;;;;4.60;4.18;;;;;;;;;;5043160;28;20079;-71
2022/04/04 09:55:43;;;;;;;7.57;5.28;;;;;;;;;;5043328;28;20025;-72
2022/04/04 09:58:14;;;;;;;4.72;4.18;;;;;;;;;;5043741;28;20060;-70
2022/04/04 10:00:40;;;;;;;6.15;4.10;;;;;;;;;;5039357;28;20947;-74
2022/04/04 10:03:12;;;;;;;7.60;4.32;;;;;;;;;;5042115;28;20158;-71
2022/04/04 10:05:39;;;;;;;5.60;3.77;;;;;;;;;;5043070;28;20021;-74
2022/04/04 10:08:06;;;;;;;7.82;4.65;;;;;;;;;;5043567;28;20100;-72
2022/04/04 10:10:32;;;;;;;4.95;3.80;;;;;;;;;;5041785;28;20481;-75
2022/04/04 10:12:58;;;;;;;5.25;3.85;;;;;;;;;;5042695;28;20151;-71
2022/04/04 10:15:25;;;;;;;4.13;3.70;;;;;;;;;;5042903;28;20386;-72
2022/04/04 10:17:52;;;;;;;5.07;4.18;;;;;;;;;;5041359;28;20025;-70
2022/04/04 10:20:19;;;;;;;6.55;3.90;;;;;;;;;;5039888;28;20033;-70
2022/04/04 10:22:47;;;;;;;4.68;3.97;;;;;;;;;;5040402;28;20029;-74
2022/04/04 10:25:14;;;;;;;8.88;4.13;;;;;;;;;;5041002;28;20394;-73
2022/04/04 10:27:40;;;;;;;8.18;5.25;;;;;;;;;;5042575;28;20032;-71
2022/04/04 10:30:08;;;;;;;6.07;4.22;;;;;;;;;;5042290;28;20052;-72
2022/04/04 10:32:34;;;;;;;5.35;4.07;;;;;;;;;;5042540;28;20075;-74
2022/04/04 10:35:10;;;;;;;6.43;4.18;;;;;;;;;;5043397;28;20364;-70
2022/04/04 10:37:45;;;;;;;3.33;2.35;;;;;;;;;;5042899;28;20656;-71
2022/04/04 10:40:25;;;;;;;6.00;5.10;;;;;;;;;;5043900;28;20037;-72
2022/04/04 10:43:15;;;;;;;4.65;4.15;;;;;;;;;;5047545;28;20018;-73
2022/04/04 10:45:58;;;;;;;6.78;3.97;;;;;;;;;;5042452;28;20056;-73
2022/04/04 10:48:29;;;;;;;8.27;4.88;;;;;;;;;;5042809;28;20048;-73
2022/04/04 10:51:00;;;;;;;7.00;4.95;;;;;;;;;;5043433;28;20057;-73
2022/04/04 10:53:46;;;;;;;7.05;4.72;;;;;;;;;;5044915;28;20085;-72
2022/04/04 10:56:17;;;;;;;8.85;4.72;;;;;;;;;;5042976;28;20020;-71
2022/04/04 10:58:42;;;;;;;17.63;5.65;;;;;;;;;;5042846;28;20117;-68
2022/04/04 11:01:14;;;;;;;4.97;3.70;;;;;;;;;;5043852;28;20663;-73
2022/04/04 11:03:48;;;;;;;5.88;4.43;;;;;;;;;;5042467;28;20383;-70
2022/04/04 11:09:11;;;;;;;10.60;4.22;;;;;;;;;;5042703;28;20028;-72
2022/04/04 11:12:09;;;;;;;6.43;3.97;;;;;;;;;;5042980;28;20027;-74
2022/04/04 11:14:37;;;;;;;5.88;4.10;;;;;;;;;;5042389;28;20037;-73
2022/04/04 11:17:08;;;;;;;3.67;3.28;;;;;;;;;;5045161;28;20029;-72
2022/04/04 11:19:49;;;;;;;3.17;2.85;;;;;;;;;;5043149;28;20044;-74
2022/04/04 11:22:17;;;;;;;5.38;3.40;;;;;;;;;;5044029;28;20375;-74
2022/04/04 11:24:43;;;;;;;3.92;3.25;;;;;;;;;;5042896;28;20025;-71
2022/04/04 11:27:10;;;;;;;4.18;3.05;;;;;;;;;;5046455;28;20082;-71
2022/04/04 11:29:38;;;;;;;5.60;3.53;;;;;;;;;;5046848;28;20252;-74
2022/04/04 11:32:04;;;;;;;4.78;3.30;;;;;;;;;;5045042;28;20051;-74
2022/04/04 11:34:31;;;;;;;4.18;3.10;;;;;;;;;;5046242;28;20064;-70
2022/04/04 11:36:57;;;;;;;13.48;3.92;;;;;;;;;;5025426;28;20026;-72
2022/04/04 11:39:23;;;;;;;6.43;3.58;;;;;;;;;;5025514;28;20049;-70
2022/04/04 11:41:52;;;;;;;7.38;4.50;;;;;;;;;;5026740;28;20026;-69
2022/04/04 11:44:26;;;;;;;4.60;2.70;;;;;;;;;;5025433;28;20676;-72
2022/04/04 11:47:05;;;;;;;5.47;3.20;;;;;;;;;;5025656;28;20659;-70
2022/04/04 11:49:39;;;;;;;7.07;3.10;;;;;;;;;;5029451;28;20471;-70
2022/04/04 11:52:06;;;;;;;7.65;3.45;;;;;;;;;;5025309;28;20029;-76
2022/04/04 11:54:48;;;;;;;4.55;3.20;;;;;;;;;;5029232;28;20055;-73
2022/04/04 11:57:14;;;;;;;11.68;3.88;;;;;;;;;;5043057;28;20017;-73
2022/04/04 11:59:43;;;;;;;7.25;3.85;;;;;;;;;;5045937;28;20033;-74
2022/04/04 12:02:09;;;;;;;4.03;3.45;;;;;;;;;;5046507;28;20074;-69
2022/04/04 12:04:36;;;;;;;7.28;3.13;;;;;;;;;;5045159;28;20047;-72
2022/04/04 12:07:03;;;;;;;5.90;3.92;;;;;;;;;;5045645;28;20021;-70
2022/04/04 12:09:33;;;;;;;5.22;3.35;;;;;;;;;;5045550;28;20037;-70
2022/04/04 12:12:07;;;;;;;6.22;3.45;;;;;;;;;;5043884;28;20025;-76
2022/04/04 12:14:35;;;;;;;3.75;3.20;;;;;;;;;;5042776;28;20640;-72
2022/04/04 12:17:00;;;;;;;3.67;2.95;;;;;;;;;;5046812;28;20067;-73
2022/04/04 12:19:26;;;;;;;3.60;3.05;;;;;;;;;;5037560;28;20438;-71
2022/04/04 12:21:52;;;;;;;7.10;3.58;;;;;;;;;;5041145;28;20029;-73
2022/04/04 12:27:14;;;;;;;3.40;3.10;;;;;;;;;;5049710;28;20079;-72
2022/04/04 12:29:41;;;;;;;5.20;3.65;;;;;;;;;;5043227;28;20124;-76
2022/04/04 12:32:18;;;;;;;5.35;3.65;;;;;;;;;;5041558;28;20317;-72
2022/04/04 12:34:54;;;;;;;5.10;3.10;;;;;;;;;;5042352;28;20406;-72
2022/04/04 12:37:20;;;;;;;12.65;4.22;;;;;;;;;;5043388;28;20024;-71
2022/04/04 12:39:49;;;;;;;11.38;3.55;;;;;;;;;;5044245;28;20056;-72
2022/04/04 12:42:14;;;;;;;13.13;3.95;;;;;;;;;;5043224;28;20028;-71
2022/04/04 12:44:40;;;;;;;4.22;3.03;;;;;;;;;;5046781;28;20039;-73
2022/04/04 12:47:09;;;;;;;5.25;3.70;;;;;;;;;;5041323;28;20033;-75
2022/04/04 12:49:35;;;;;;;4.22;3.22;;;;;;;;;;5041837;28;20074;-72
2022/04/04 12:52:06;;;;;;;4.60;4.15;;;;;;;;;;5051076;28;20438;-74
2022/04/04 12:54:39;;;;;;;6.13;3.55;;;;;;;;;;5042592;28;20033;-73
2022/04/04 12:57:10;;;;;;;6.55;4.13;;;;;;;;;;5047087;28;20047;-71
2022/04/04 12:59:50;;;;;;;4.78;3.72;;;;;;;;;;5046063;28;20501;-74
2022/04/04 13:02:16;;;;;;;8.55;4.10;;;;;;;;;;5041482;28;20616;-71
2022/04/04 13:04:41;;;;;;;4.43;4.03;;;;;;;;;;5043076;28;20036;-72
2022/04/04 13:07:18;;;;;;;7.45;3.80;;;;;;;;;;5042993;28;20548;-74
2022/04/04 13:09:54;;;;;;;5.03;3.88;;;;;;;;;;5042850;28;20086;-71
2022/04/04 13:12:30;;;;;;;5.55;3.90;;;;;;;;;;5042594;28;20417;-72
2022/04/04 13:14:56;;;;;;;5.70;4.03;;;;;;;;;;5040490;28;20112;-71
2022/04/04 13:17:42;;;;;;;7.88;4.65;;;;;;;;;;5032197;28;20021;-71
2022/04/04 13:20:12;;;;;;;7.18;4.93;;;;;;;;;;5037235;28;20028;-69
2022/04/04 13:22:37;;;;;;;5.10;4.35;;;;;;;;;;5035473;28;20772;-73
2022/04/04 13:25:03;;;;;;;6.47;4.45;;;;;;;;;;5041915;28;20044;-74
2022/04/04 13:27:28;;;;;;;8.45;4.30;;;;;;;;;;5042812;28;20028;-72
2022/04/04 13:29:54;;;;;;;5.57;4.10;;;;;;;;;;5037407;28;20093;-71
2022/04/04 13:32:19;;;;;;;7.93;4.97;;;;;;;;;;5033418;28;20032;-70
2022/04/04 13:34:46;;;;;;;6.28;4.18;;;;;;;;;;5042251;28;20029;-73
2022/04/04 13:37:12;;;;;;;10.02;5.75;;;;;;;;;;5042284;28;20029;-75
2022/04/04 13:39:37;;;;;;;7.03;3.90;;;;;;;;;;5040576;28;20025;-75
2022/04/04 13:42:04;;;;;;;4.95;4.10;;;;;;;;;;5041957;28;20017;-71
2022/04/04 13:44:30;;;;;;;6.85;4.43;;;;;;;;;;5041131;28;20031;-72
2022/04/04 13:46:55;;;;;;;4.90;4.38;;;;;;;;;;5042886;28;20025;-72
2022/04/04 13:49:20;;;;;;;6.28;4.20;;;;;;;;;;5041158;28;20021;-69
2022/04/04 13:51:46;;;;;;;6.50;4.10;;;;;;;;;;5042242;28;20025;-68
2022/04/04 13:54:11;;;;;;;7.80;4.85;;;;;;;;;;5041380;28;20025;-71
2022/04/04 13:56:36;;;;;;;10.68;5.32;;;;;;;;;;5040151;28;20033;-74
2022/04/04 13:59:03;;;;;;;5.07;3.55;;;;;;;;;;5041431;28;20715;-72
2022/04/04 14:01:28;;;;;;;4.13;3.00;;;;;;;;;;5041781;28;20104;-73
2022/04/04 14:03:54;;;;;;;7.35;3.90;;;;;;;;;;5042579;28;20108;-71
2022/04/04 14:06:20;;;;;;;4.93;3.50;;;;;;;;;;5041971;28;20368;-75
2022/04/04 14:08:46;;;;;;;9.77;5.10;;;;;;;;;;5041685;28;20533;-70
2022/04/04 14:11:13;;;;;;;13.55;6.50;;;;;;;;;;5042525;28;20108;-72
2022/04/04 14:13:45;;;;;;;7.18;4.68;;;;;;;;;;5041086;28;20027;-73
2022/04/04 14:16:11;;;;;;;6.97;4.75;;;;;;;;;;5042177;28;20127;-73
2022/04/04 14:18:37;;;;;;;6.43;4.25;;;;;;;;;;5041940;28;20021;-72
2022/04/04 14:21:04;;;;;;;6.68;4.03;;;;;;;;;;5042023;28;20577;-70
2022/04/04 14:23:30;;;;;;;7.60;4.10;;;;;;;;;;5041642;28;20028;-72
2022/04/04 14:25:56;;;;;;;4.47;3.38;;;;;;;;;;5042642;28;20025;-73
2022/04/04 14:28:22;;;;;;;4.65;3.13;;;;;;;;;;5041681;28;20033;-71
2022/04/04 14:30:49;;;;;;;3.28;2.75;;;;;;;;;;5041490;28;20017;-75
2022/04/04 14:33:16;;;;;;;6.03;3.92;;;;;;;;;;5042094;28;20278;-74
2022/04/04 14:35:42;;;;;;;4.85;4.35;;;;;;;;;;5042264;28;20043;-73
2022/04/04 14:38:07;;;;;;;6.82;4.13;;;;;;;;;;5041471;28;20096;-69
2022/04/04 14:40:32;;;;;;;8.02;4.57;;;;;;;;;;5039654;28;20028;-74
2022/04/04 14:42:58;;;;;;;7.40;3.20;;;;;;;;;;5038547;28;20038;-73
2022/04/04 14:45:25;;;;;;;4.80;3.20;;;;;;;;;;5042520;28;20140;-74
2022/04/04 14:47:50;;;;;;;4.22;3.83;;;;;;;;;;5042576;28;20047;-72